sensor_id;sensor_type;location;lat;lon;timestamp;pressure;altitude;pressure_sealevel;temperature;humidity
9335;BME280;4706;41.844;26.082;2023-03-21T00:01:54;100805.63;;;12.15;71.13
9335;BME280;4706;41.844;26.082;2023-03-21T00:04:23;100792.03;;;12.05;70.73
9335;BME280;4706;41.844;26.082;2023-03-21T00:06:49;100795.72;;;12.01;70.55
9335;BME280;4706;41.844;26.082;2023-03-21T00:09:15;100794.81;;;11.73;71.87
9335;BME280;4706;41.844;26.082;2023-03-21T00:11:40;100802.44;;;11.62;72.14
9335;BME280;4706;41.844;26.082;2023-03-21T00:14:06;100810.69;;;11.48;73.40
9335;BME280;4706;41.844;26.082;2023-03-21T00:16:33;100792.66;;;11.56;73.71
9335;BME280;4706;41.844;26.082;2023-03-21T00:19:00;100805.41;;;11.65;74.12
9335;BME280;4706;41.844;26.082;2023-03-21T00:21:28;100795.03;;;11.76;73.72
9335;BME280;4706;41.844;26.082;2023-03-21T00:23:57;100800.06;;;11.88;72.66
9335;BME280;4706;41.844;26.082;2023-03-21T00:26:23;100797.47;;;11.97;72.48
9335;BME280;4706;41.844;26.082;2023-03-21T00:28:49;100794.59;;;12.02;72.66
9335;BME280;4706;41.844;26.082;2023-03-21T00:31:15;100784.38;;;12.02;72.87
9335;BME280;4706;41.844;26.082;2023-03-21T00:33:40;100790.22;;;12.01;72.58
9335;BME280;4706;41.844;26.082;2023-03-21T00:36:07;100787.13;;;12.02;72.53
9335;BME280;4706;41.844;26.082;2023-03-21T00:38:34;100789.69;;;11.99;73.10
9335;BME280;4706;41.844;26.082;2023-03-21T00:41:03;100796.31;;;11.98;73.06
9335;BME280;4706;41.844;26.082;2023-03-21T00:43:28;100793.25;;;11.99;72.96
9335;BME280;4706;41.844;26.082;2023-03-21T00:45:56;100791.94;;;11.97;72.57
9335;BME280;4706;41.844;26.082;2023-03-21T00:48:23;100781.19;;;11.95;72.60
9335;BME280;4706;41.844;26.082;2023-03-21T00:50:50;100787.75;;;11.99;72.35
9335;BME280;4706;41.844;26.082;2023-03-21T00:53:17;100779.25;;;11.96;72.21
9335;BME280;4706;41.844;26.082;2023-03-21T00:55:42;100772.91;;;11.81;72.49
9335;BME280;4706;41.844;26.082;2023-03-21T00:58:08;100773.09;;;11.71;72.97
9335;BME280;4706;41.844;26.082;2023-03-21T01:00:33;100772.47;;;11.74;72.96
9335;BME280;4706;41.844;26.082;2023-03-21T01:03:02;100772.69;;;11.78;72.80
9335;BME280;4706;41.844;26.082;2023-03-21T01:05:32;100776.13;;;11.70;73.50
9335;BME280;4706;41.844;26.082;2023-03-21T01:08:18;100771.25;;;11.66;72.46
9335;BME280;4706;41.844;26.082;2023-03-21T01:10:45;100774.38;;;11.60;72.28
9335;BME280;4706;41.844;26.082;2023-03-21T01:13:13;100779.38;;;11.58;72.58
9335;BME280;4706;41.844;26.082;2023-03-21T01:15:44;100778.75;;;11.47;71.70
9335;BME280;4706;41.844;26.082;2023-03-21T01:18:11;100778.56;;;11.57;71.70
9335;BME280;4706;41.844;26.082;2023-03-21T01:20:39;100774.78;;;11.53;71.90
9335;BME280;4706;41.844;26.082;2023-03-21T01:23:06;100768.88;;;11.60;71.94
9335;BME280;4706;41.844;26.082;2023-03-21T01:25:31;100771.53;;;11.65;72.20
9335;BME280;4706;41.844;26.082;2023-03-21T01:27:57;100769.38;;;11.62;72.98
9335;BME280;4706;41.844;26.082;2023-03-21T01:30:23;100763.53;;;11.50;72.85
9335;BME280;4706;41.844;26.082;2023-03-21T01:32:48;100756.72;;;11.47;73.02
9335;BME280;4706;41.844;26.082;2023-03-21T01:35:14;100773.56;;;11.59;73.11
9335;BME280;4706;41.844;26.082;2023-03-21T01:37:40;100773.25;;;11.61;72.68
9335;BME280;4706;41.844;26.082;2023-03-21T01:40:06;100772.75;;;11.59;72.85
9335;BME280;4706;41.844;26.082;2023-03-21T01:42:38;100761.00;;;11.53;73.19
9335;BME280;4706;41.844;26.082;2023-03-21T01:48:07;100751.75;;;11.63;73.31
9335;BME280;4706;41.844;26.082;2023-03-21T01:50:33;100739.28;;;11.65;72.93
9335;BME280;4706;41.844;26.082;2023-03-21T01:53:01;100746.13;;;11.68;73.03
9335;BME280;4706;41.844;26.082;2023-03-21T01:55:28;100737.97;;;11.63;73.00
9335;BME280;4706;41.844;26.082;2023-03-21T01:57:55;100736.31;;;11.62;73.14
9335;BME280;4706;41.844;26.082;2023-03-21T02:00:23;100725.41;;;11.57;72.75
9335;BME280;4706;41.844;26.082;2023-03-21T02:02:51;100737.16;;;11.62;72.54
9335;BME280;4706;41.844;26.082;2023-03-21T02:05:32;100739.69;;;11.59;73.09
9335;BME280;4706;41.844;26.082;2023-03-21T02:08:02;100732.25;;;11.59;73.08
9335;BME280;4706;41.844;26.082;2023-03-21T02:10:28;100726.94;;;11.63;73.17
9335;BME280;4706;41.844;26.082;2023-03-21T02:12:58;100722.53;;;11.62;73.69
9335;BME280;4706;41.844;26.082;2023-03-21T02:15:36;100721.66;;;11.66;72.89
9335;BME280;4706;41.844;26.082;2023-03-21T02:26:51;100717.38;;;11.28;74.19
9335;BME280;4706;41.844;26.082;2023-03-21T02:29:01;100721.88;;;11.05;74.73
9335;BME280;4706;41.844;26.082;2023-03-21T02:37:04;100714.72;;;10.71;76.69
9335;BME280;4706;41.844;26.082;2023-03-21T02:39:41;100719.16;;;10.86;76.60
9335;BME280;4706;41.844;26.082;2023-03-21T02:42:31;100710.47;;;10.79;77.38
9335;BME280;4706;41.844;26.082;2023-03-21T02:47:42;100710.66;;;10.68;78.10
9335;BME280;4706;41.844;26.082;2023-03-21T02:50:13;100712.28;;;10.69;78.58
9335;BME280;4706;41.844;26.082;2023-03-21T02:52:41;100709.16;;;10.76;78.37
9335;BME280;4706;41.844;26.082;2023-03-21T02:55:14;100712.78;;;10.72;78.43
9335;BME280;4706;41.844;26.082;2023-03-21T02:57:43;100692.78;;;10.47;79.35
9335;BME280;4706;41.844;26.082;2023-03-21T03:00:15;100701.41;;;10.40;80.36
9335;BME280;4706;41.844;26.082;2023-03-21T03:02:43;100700.97;;;10.52;80.02
9335;BME280;4706;41.844;26.082;2023-03-21T03:05:29;100695.19;;;10.54;79.33
9335;BME280;4706;41.844;26.082;2023-03-21T03:13:34;100687.50;;;10.69;78.83
9335;BME280;4706;41.844;26.082;2023-03-21T03:18:56;100682.25;;;10.54;77.32
9335;BME280;4706;41.844;26.082;2023-03-21T03:21:29;100687.44;;;10.37;78.13
9335;BME280;4706;41.844;26.082;2023-03-21T03:24:00;100673.63;;;10.42;77.39
9335;BME280;4706;41.844;26.082;2023-03-21T03:26:29;100687.16;;;10.57;76.72
9335;BME280;4706;41.844;26.082;2023-03-21T03:28:59;100683.50;;;10.62;76.48
9335;BME280;4706;41.844;26.082;2023-03-21T03:31:31;100687.38;;;10.61;76.47
9335;BME280;4706;41.844;26.082;2023-03-21T03:34:02;100680.69;;;10.48;76.44
9335;BME280;4706;41.844;26.082;2023-03-21T03:36:34;100681.78;;;10.47;76.61
9335;BME280;4706;41.844;26.082;2023-03-21T03:39:09;100680.91;;;10.33;77.30
9335;BME280;4706;41.844;26.082;2023-03-21T03:42:28;100681.38;;;10.16;78.35
9335;BME280;4706;41.844;26.082;2023-03-21T03:44:34;100678.84;;;10.01;79.38
9335;BME280;4706;41.844;26.082;2023-03-21T03:47:05;100674.19;;;9.96;79.95
9335;BME280;4706;41.844;26.082;2023-03-21T03:49:37;100675.25;;;10.00;80.39
9335;BME280;4706;41.844;26.082;2023-03-21T03:52:16;100677.19;;;10.00;80.20
9335;BME280;4706;41.844;26.082;2023-03-21T03:54:46;100681.28;;;10.02;80.60
9335;BME280;4706;41.844;26.082;2023-03-21T03:57:13;100678.31;;;10.17;80.31
9335;BME280;4706;41.844;26.082;2023-03-21T03:59:42;100689.97;;;10.33;79.62
9335;BME280;4706;41.844;26.082;2023-03-21T04:02:09;100692.25;;;10.45;80.19
9335;BME280;4706;41.844;26.082;2023-03-21T04:04:35;100696.44;;;10.61;79.70
9335;BME280;4706;41.844;26.082;2023-03-21T04:07:01;100703.66;;;10.76;78.66
9335;BME280;4706;41.844;26.082;2023-03-21T04:09:28;100695.84;;;10.83;78.33
9335;BME280;4706;41.844;26.082;2023-03-21T04:11:55;100696.88;;;10.87;77.78
9335;BME280;4706;41.844;26.082;2023-03-21T04:14:20;100699.16;;;10.99;76.67
9335;BME280;4706;41.844;26.082;2023-03-21T04:16:46;100703.00;;;10.98;76.49
9335;BME280;4706;41.844;26.082;2023-03-21T04:19:12;100696.84;;;11.06;75.98
9335;BME280;4706;41.844;26.082;2023-03-21T04:21:38;100709.25;;;11.04;75.70
9335;BME280;4706;41.844;26.082;2023-03-21T04:24:04;100717.72;;;11.07;75.78
9335;BME280;4706;41.844;26.082;2023-03-21T04:26:31;100718.22;;;11.09;75.90
9335;BME280;4706;41.844;26.082;2023-03-21T04:28:59;100722.09;;;11.08;76.33
9335;BME280;4706;41.844;26.082;2023-03-21T04:31:25;100725.91;;;11.12;76.03
9335;BME280;4706;41.844;26.082;2023-03-21T04:33:53;100732.53;;;11.11;76.30
9335;BME280;4706;41.844;26.082;2023-03-21T04:36:20;100729.25;;;11.09;75.93
9335;BME280;4706;41.844;26.082;2023-03-21T04:38:55;100723.75;;;11.09;76.25
9335;BME280;4706;41.844;26.082;2023-03-21T04:41:27;100725.91;;;11.12;76.12
9335;BME280;4706;41.844;26.082;2023-03-21T04:43:53;100733.56;;;11.15;75.87
9335;BME280;4706;41.844;26.082;2023-03-21T04:46:19;100732.22;;;11.13;75.99
9335;BME280;4706;41.844;26.082;2023-03-21T04:48:45;100734.59;;;11.19;76.14
9335;BME280;4706;41.844;26.082;2023-03-21T04:51:11;100735.41;;;11.20;75.87
9335;BME280;4706;41.844;26.082;2023-03-21T04:53:37;100746.19;;;11.16;76.45
9335;BME280;4706;41.844;26.082;2023-03-21T04:56:04;100735.19;;;11.16;76.27
9335;BME280;4706;41.844;26.082;2023-03-21T04:58:30;100739.28;;;11.19;76.23
9335;BME280;4706;41.844;26.082;2023-03-21T05:00:56;100735.41;;;11.20;76.41
9335;BME280;4706;41.844;26.082;2023-03-21T05:03:23;100746.84;;;11.27;76.25
9335;BME280;4706;41.844;26.082;2023-03-21T05:05:49;100751.31;;;11.23;76.58
9335;BME280;4706;41.844;26.082;2023-03-21T05:08:15;100759.00;;;11.26;76.01
9335;BME280;4706;41.844;26.082;2023-03-21T05:10:41;100753.91;;;11.33;76.19
9335;BME280;4706;41.844;26.082;2023-03-21T05:13:07;100751.38;;;11.37;75.82
9335;BME280;4706;41.844;26.082;2023-03-21T05:15:32;100754.84;;;11.42;75.30
9335;BME280;4706;41.844;26.082;2023-03-21T05:17:58;100743.13;;;11.51;75.65
9335;BME280;4706;41.844;26.082;2023-03-21T05:20:24;100741.44;;;11.55;75.70
9335;BME280;4706;41.844;26.082;2023-03-21T05:22:50;100738.38;;;11.56;75.57
9335;BME280;4706;41.844;26.082;2023-03-21T05:25:16;100735.06;;;11.54;75.51
9335;BME280;4706;41.844;26.082;2023-03-21T05:27:46;100739.00;;;11.67;75.50
9335;BME280;4706;41.844;26.082;2023-03-21T05:30:18;100737.56;;;11.56;75.93
9335;BME280;4706;41.844;26.082;2023-03-21T05:32:44;100735.19;;;11.49;76.17
9335;BME280;4706;41.844;26.082;2023-03-21T05:35:11;100728.81;;;11.35;77.03
9335;BME280;4706;41.844;26.082;2023-03-21T05:37:36;100740.84;;;11.25;78.28
9335;BME280;4706;41.844;26.082;2023-03-21T05:40:04;100723.41;;;11.30;78.22
9335;BME280;4706;41.844;26.082;2023-03-21T05:42:33;100735.94;;;11.55;78.19
9335;BME280;4706;41.844;26.082;2023-03-21T05:44:59;100733.06;;;11.60;78.65
9335;BME280;4706;41.844;26.082;2023-03-21T05:47:24;100738.13;;;11.85;77.85
9335;BME280;4706;41.844;26.082;2023-03-21T05:49:50;100732.31;;;11.87;78.13
9335;BME280;4706;41.844;26.082;2023-03-21T05:52:16;100734.63;;;11.66;79.30
9335;BME280;4706;41.844;26.082;2023-03-21T05:54:42;100733.66;;;11.57;79.83
9335;BME280;4706;41.844;26.082;2023-03-21T05:57:08;100731.34;;;11.64;79.08
9335;BME280;4706;41.844;26.082;2023-03-21T05:59:33;100751.25;;;11.75;79.54
9335;BME280;4706;41.844;26.082;2023-03-21T06:01:59;100749.91;;;11.72;79.21
9335;BME280;4706;41.844;26.082;2023-03-21T06:04:26;100746.50;;;11.48;80.79
9335;BME280;4706;41.844;26.082;2023-03-21T06:06:52;100747.06;;;11.63;80.31
9335;BME280;4706;41.844;26.082;2023-03-21T06:09:19;100744.75;;;11.84;79.16
9335;BME280;4706;41.844;26.082;2023-03-21T06:11:47;100736.78;;;12.10;78.37
9335;BME280;4706;41.844;26.082;2023-03-21T06:14:13;100736.50;;;11.98;78.28
9335;BME280;4706;41.844;26.082;2023-03-21T06:16:39;100723.00;;;12.24;77.83
9335;BME280;4706;41.844;26.082;2023-03-21T06:19:04;100725.16;;;12.27;77.77
9335;BME280;4706;41.844;26.082;2023-03-21T06:21:30;100717.81;;;12.23;77.21
9335;BME280;4706;41.844;26.082;2023-03-21T06:23:55;100721.59;;;12.13;77.97
9335;BME280;4706;41.844;26.082;2023-03-21T06:26:21;100716.28;;;12.03;77.91
9335;BME280;4706;41.844;26.082;2023-03-21T06:28:48;100733.31;;;11.91;78.82
9335;BME280;4706;41.844;26.082;2023-03-21T06:31:14;100728.94;;;11.90;80.16
9335;BME280;4706;41.844;26.082;2023-03-21T06:33:39;100732.00;;;12.30;79.89
9335;BME280;4706;41.844;26.082;2023-03-21T06:36:05;100727.06;;;12.77;76.34
9335;BME280;4706;41.844;26.082;2023-03-21T06:38:31;100725.84;;;13.05;74.56
9335;BME280;4706;41.844;26.082;2023-03-21T06:40:56;100731.00;;;13.21;73.47
9335;BME280;4706;41.844;26.082;2023-03-21T06:43:22;100742.72;;;13.49;72.67
9335;BME280;4706;41.844;26.082;2023-03-21T06:45:47;100738.72;;;13.55;72.42
9335;BME280;4706;41.844;26.082;2023-03-21T06:48:13;100729.97;;;13.62;71.57
9335;BME280;4706;41.844;26.082;2023-03-21T06:50:38;100731.84;;;13.83;70.69
9335;BME280;4706;41.844;26.082;2023-03-21T06:53:05;100731.94;;;14.01;70.76
9335;BME280;4706;41.844;26.082;2023-03-21T06:55:30;100735.97;;;13.95;70.31
9335;BME280;4706;41.844;26.082;2023-03-21T06:57:56;100735.47;;;13.93;70.64
9335;BME280;4706;41.844;26.082;2023-03-21T07:00:22;100737.69;;;14.22;68.93
9335;BME280;4706;41.844;26.082;2023-03-21T07:02:49;100735.75;;;14.31;68.98
9335;BME280;4706;41.844;26.082;2023-03-21T07:05:15;100743.09;;;14.36;68.59
9335;BME280;4706;41.844;26.082;2023-03-21T07:07:41;100742.63;;;14.42;68.37
9335;BME280;4706;41.844;26.082;2023-03-21T07:10:07;100751.13;;;14.54;68.43
9335;BME280;4706;41.844;26.082;2023-03-21T07:12:33;100750.84;;;14.65;67.71
9335;BME280;4706;41.844;26.082;2023-03-21T07:15:01;100722.34;;;14.64;67.00
9335;BME280;4706;41.844;26.082;2023-03-21T07:17:27;100738.94;;;14.81;66.88
9335;BME280;4706;41.844;26.082;2023-03-21T07:19:52;100746.94;;;15.09;65.99
9335;BME280;4706;41.844;26.082;2023-03-21T07:22:18;100744.31;;;15.39;65.14
9335;BME280;4706;41.844;26.082;2023-03-21T07:24:44;100733.94;;;15.74;63.42
9335;BME280;4706;41.844;26.082;2023-03-21T07:27:13;100733.69;;;15.96;62.14
9335;BME280;4706;41.844;26.082;2023-03-21T07:29:39;100732.47;;;16.15;61.44
9335;BME280;4706;41.844;26.082;2023-03-21T07:32:05;100716.00;;;16.10;61.07
9335;BME280;4706;41.844;26.082;2023-03-21T07:34:30;100728.09;;;16.05;60.33
9335;BME280;4706;41.844;26.082;2023-03-21T07:36:57;100725.41;;;16.26;60.82
9335;BME280;4706;41.844;26.082;2023-03-21T07:39:22;100735.69;;;16.25;60.64
9335;BME280;4706;41.844;26.082;2023-03-21T07:41:48;100734.19;;;15.98;61.89
9335;BME280;4706;41.844;26.082;2023-03-21T07:44:13;100714.19;;;15.75;62.76
9335;BME280;4706;41.844;26.082;2023-03-21T07:46:39;100712.03;;;16.19;61.74
9335;BME280;4706;41.844;26.082;2023-03-21T07:49:05;100725.44;;;16.68;59.90
9335;BME280;4706;41.844;26.082;2023-03-21T07:51:33;100726.63;;;16.88;58.73
9335;BME280;4706;41.844;26.082;2023-03-21T07:54:00;100719.94;;;16.89;59.18
9335;BME280;4706;41.844;26.082;2023-03-21T07:56:27;100716.94;;;16.94;58.76
9335;BME280;4706;41.844;26.082;2023-03-21T07:58:52;100717.41;;;17.29;57.70
9335;BME280;4706;41.844;26.082;2023-03-21T08:01:18;100722.06;;;17.37;57.22
9335;BME280;4706;41.844;26.082;2023-03-21T08:03:44;100723.06;;;16.99;58.13
9335;BME280;4706;41.844;26.082;2023-03-21T08:06:09;100725.13;;;16.90;58.62
9335;BME280;4706;41.844;26.082;2023-03-21T08:08:36;100714.63;;;17.29;58.04
9335;BME280;4706;41.844;26.082;2023-03-21T08:11:02;100716.69;;;17.53;58.02
9335;BME280;4706;41.844;26.082;2023-03-21T08:13:28;100723.47;;;17.77;56.80
9335;BME280;4706;41.844;26.082;2023-03-21T08:15:54;100712.56;;;17.96;56.71
9335;BME280;4706;41.844;26.082;2023-03-21T08:18:19;100714.31;;;17.76;57.24
9335;BME280;4706;41.844;26.082;2023-03-21T08:20:44;100703.31;;;17.92;54.84
9335;BME280;4706;41.844;26.082;2023-03-21T08:23:10;100700.28;;;18.22;54.62
9335;BME280;4706;41.844;26.082;2023-03-21T08:25:38;100710.13;;;18.43;54.19
9335;BME280;4706;41.844;26.082;2023-03-21T08:28:04;100702.06;;;18.66;53.19
9335;BME280;4706;41.844;26.082;2023-03-21T08:30:30;100704.41;;;19.05;52.46
9335;BME280;4706;41.844;26.082;2023-03-21T08:32:57;100703.09;;;19.14;51.44
9335;BME280;4706;41.844;26.082;2023-03-21T08:35:23;100691.72;;;19.07;51.71
9335;BME280;4706;41.844;26.082;2023-03-21T08:37:49;100685.59;;;19.02;51.88
9335;BME280;4706;41.844;26.082;2023-03-21T08:40:17;100686.72;;;18.85;52.44
9335;BME280;4706;41.844;26.082;2023-03-21T08:42:44;100685.56;;;18.61;52.93
9335;BME280;4706;41.844;26.082;2023-03-21T08:45:13;100678.84;;;18.62;52.98
9335;BME280;4706;41.844;26.082;2023-03-21T08:47:39;100675.81;;;18.67;53.36
9335;BME280;4706;41.844;26.082;2023-03-21T08:50:06;100679.25;;;18.89;52.53
9335;BME280;4706;41.844;26.082;2023-03-21T08:52:33;100681.63;;;19.03;52.11
9335;BME280;4706;41.844;26.082;2023-03-21T08:54:58;100680.03;;;19.17;51.55
9335;BME280;4706;41.844;26.082;2023-03-21T08:57:24;100675.41;;;19.37;50.66
9335;BME280;4706;41.844;26.082;2023-03-21T08:59:50;100666.25;;;19.37;51.32
9335;BME280;4706;41.844;26.082;2023-03-21T09:02:16;100676.28;;;19.70;50.31
9335;BME280;4706;41.844;26.082;2023-03-21T09:04:42;100663.66;;;19.76;49.99
9335;BME280;4706;41.844;26.082;2023-03-21T09:07:09;100664.03;;;19.90;49.06
9335;BME280;4706;41.844;26.082;2023-03-21T09:09:37;100666.25;;;20.00;48.21
9335;BME280;4706;41.844;26.082;2023-03-21T09:12:03;100661.22;;;20.06;48.95
9335;BME280;4706;41.844;26.082;2023-03-21T09:14:28;100663.19;;;19.89;50.04
9335;BME280;4706;41.844;26.082;2023-03-21T09:16:54;100654.09;;;19.93;49.35
9335;BME280;4706;41.844;26.082;2023-03-21T09:19:20;100652.03;;;19.89;49.95
9335;BME280;4706;41.844;26.082;2023-03-21T09:21:46;100654.53;;;20.10;49.10
9335;BME280;4706;41.844;26.082;2023-03-21T09:24:12;100649.69;;;19.92;49.07
9335;BME280;4706;41.844;26.082;2023-03-21T09:26:37;100643.81;;;19.97;48.83
9335;BME280;4706;41.844;26.082;2023-03-21T09:29:03;100648.91;;;19.91;49.56
9335;BME280;4706;41.844;26.082;2023-03-21T09:31:31;100643.41;;;19.95;49.08
9335;BME280;4706;41.844;26.082;2023-03-21T09:33:57;100635.44;;;20.12;48.83
9335;BME280;4706;41.844;26.082;2023-03-21T09:36:23;100630.78;;;19.85;49.61
9335;BME280;4706;41.844;26.082;2023-03-21T09:38:52;100639.91;;;19.66;50.80
9335;BME280;4706;41.844;26.082;2023-03-21T09:47:26;100629.84;;;19.17;51.52
9335;BME280;4706;41.844;26.082;2023-03-21T09:50:13;100630.94;;;19.13;52.15
9335;BME280;4706;41.844;26.082;2023-03-21T09:53:04;100625.53;;;19.04;51.55
9335;BME280;4706;41.844;26.082;2023-03-21T09:55:36;100624.75;;;18.91;51.31
9335;BME280;4706;41.844;26.082;2023-03-21T10:00:43;100608.13;;;18.79;52.09
9335;BME280;4706;41.844;26.082;2023-03-21T10:03:21;100624.50;;;18.68;51.20
9335;BME280;4706;41.844;26.082;2023-03-21T10:05:50;100624.50;;;18.68;52.03
9335;BME280;4706;41.844;26.082;2023-03-21T10:08:22;100625.31;;;18.69;52.41
9335;BME280;4706;41.844;26.082;2023-03-21T10:10:57;100620.00;;;18.64;51.56
9335;BME280;4706;41.844;26.082;2023-03-21T10:13:28;100615.88;;;18.45;51.76
9335;BME280;4706;41.844;26.082;2023-03-21T10:15:59;100618.56;;;18.42;53.41
9335;BME280;4706;41.844;26.082;2023-03-21T10:18:28;100606.91;;;18.52;52.76
9335;BME280;4706;41.844;26.082;2023-03-21T10:20:54;100615.03;;;18.57;53.47
9335;BME280;4706;41.844;26.082;2023-03-21T10:23:23;100607.47;;;18.58;52.85
9335;BME280;4706;41.844;26.082;2023-03-21T10:25:58;100593.53;;;18.58;53.06
9335;BME280;4706;41.844;26.082;2023-03-21T10:28:27;100608.00;;;18.76;52.68
9335;BME280;4706;41.844;26.082;2023-03-21T10:30:56;100608.50;;;18.93;53.33
9335;BME280;4706;41.844;26.082;2023-03-21T10:33:27;100595.44;;;18.82;52.24
9335;BME280;4706;41.844;26.082;2023-03-21T10:35:58;100607.78;;;18.68;52.13
9335;BME280;4706;41.844;26.082;2023-03-21T10:38:26;100604.19;;;18.68;51.98
9335;BME280;4706;41.844;26.082;2023-03-21T10:40:53;100601.06;;;18.69;52.32
9335;BME280;4706;41.844;26.082;2023-03-21T10:45:50;100591.56;;;18.71;51.71
9335;BME280;4706;41.844;26.082;2023-03-21T10:48:17;100591.97;;;18.44;52.59
9335;BME280;4706;41.844;26.082;2023-03-21T10:50:46;100587.91;;;18.54;52.26
9335;BME280;4706;41.844;26.082;2023-03-21T10:53:34;100586.13;;;18.62;50.28
9335;BME280;4706;41.844;26.082;2023-03-21T10:56:06;100592.84;;;18.73;49.76
9335;BME280;4706;41.844;26.082;2023-03-21T10:58:54;100591.06;;;18.81;50.17
9335;BME280;4706;41.844;26.082;2023-03-21T11:01:38;100586.00;;;18.71;50.02
9335;BME280;4706;41.844;26.082;2023-03-21T11:04:12;100589.25;;;18.60;50.21
9335;BME280;4706;41.844;26.082;2023-03-21T11:06:40;100593.50;;;18.70;49.10
9335;BME280;4706;41.844;26.082;2023-03-21T11:09:12;100585.06;;;18.66;49.78
9335;BME280;4706;41.844;26.082;2023-03-21T11:11:40;100583.22;;;18.58;50.46
9335;BME280;4706;41.844;26.082;2023-03-21T11:14:38;100574.78;;;18.55;51.12
9335;BME280;4706;41.844;26.082;2023-03-21T11:17:28;100572.75;;;18.39;50.19
9335;BME280;4706;41.844;26.082;2023-03-21T11:20:00;100566.59;;;18.34;50.29
9335;BME280;4706;41.844;26.082;2023-03-21T11:22:29;100560.34;;;18.37;50.51
9335;BME280;4706;41.844;26.082;2023-03-21T11:24:59;100555.56;;;18.37;50.63
9335;BME280;4706;41.844;26.082;2023-03-21T11:27:26;100544.16;;;18.42;50.63
9335;BME280;4706;41.844;26.082;2023-03-21T11:29:55;100547.88;;;18.47;50.21
9335;BME280;4706;41.844;26.082;2023-03-21T11:32:35;100540.56;;;18.42;50.43
9335;BME280;4706;41.844;26.082;2023-03-21T11:35:20;100538.00;;;18.49;51.14
9335;BME280;4706;41.844;26.082;2023-03-21T11:37:51;100529.03;;;18.56;50.66
9335;BME280;4706;41.844;26.082;2023-03-21T11:42:54;100522.16;;;18.37;51.30
9335;BME280;4706;41.844;26.082;2023-03-21T11:45:27;100522.09;;;18.50;49.87
9335;BME280;4706;41.844;26.082;2023-03-21T11:47:54;100520.78;;;18.59;49.84
9335;BME280;4706;41.844;26.082;2023-03-21T11:50:38;100510.94;;;18.50;50.07
9335;BME280;4706;41.844;26.082;2023-03-21T11:58:34;100507.28;;;18.61;49.89
9335;BME280;4706;41.844;26.082;2023-03-21T12:03:58;100500.72;;;18.82;49.73
9335;BME280;4706;41.844;26.082;2023-03-21T12:06:35;100497.38;;;18.76;50.26
9335;BME280;4706;41.844;26.082;2023-03-21T12:12:24;100489.19;;;18.99;50.04
9335;BME280;4706;41.844;26.082;2023-03-21T12:17:39;100477.31;;;19.02;49.93
9335;BME280;4706;41.844;26.082;2023-03-21T12:23:01;100474.38;;;19.11;50.26
9335;BME280;4706;41.844;26.082;2023-03-21T12:25:36;100469.31;;;19.16;50.17
9335;BME280;4706;41.844;26.082;2023-03-21T12:28:20;100458.28;;;19.04;50.29
9335;BME280;4706;41.844;26.082;2023-03-21T12:39:27;100427.78;;;18.80;51.96
9335;BME280;4706;41.844;26.082;2023-03-21T12:44:43;100420.22;;;19.12;51.18
9335;BME280;4706;41.844;26.082;2023-03-21T12:47:17;100422.94;;;19.08;51.93
9335;BME280;4706;41.844;26.082;2023-03-21T12:50:04;100421.38;;;19.27;50.16
9335;BME280;4706;41.844;26.082;2023-03-21T12:52:40;100416.97;;;19.26;51.08
9335;BME280;4706;41.844;26.082;2023-03-21T12:55:26;100414.09;;;19.06;52.17
9335;BME280;4706;41.844;26.082;2023-03-21T12:58:10;100403.75;;;19.23;50.93
9335;BME280;4706;41.844;26.082;2023-03-21T13:00:44;100410.75;;;19.52;51.24
9335;BME280;4706;41.844;26.082;2023-03-21T13:03:15;100409.88;;;19.63;50.94
9335;BME280;4706;41.844;26.082;2023-03-21T13:06:01;100407.31;;;19.58;51.82
9335;BME280;4706;41.844;26.082;2023-03-21T13:10:59;100404.47;;;19.74;51.66
9335;BME280;4706;41.844;26.082;2023-03-21T13:13:42;100389.97;;;19.65;51.47
9335;BME280;4706;41.844;26.082;2023-03-21T13:19:10;100393.28;;;19.55;51.03
9335;BME280;4706;41.844;26.082;2023-03-21T13:22:02;100388.97;;;19.57;50.91
9335;BME280;4706;41.844;26.082;2023-03-21T13:27:25;100392.41;;;19.51;50.14
9335;BME280;4706;41.844;26.082;2023-03-21T13:29:58;100375.50;;;19.44;49.65
9335;BME280;4706;41.844;26.082;2023-03-21T13:32:37;100382.66;;;19.41;49.29
9335;BME280;4706;41.844;26.082;2023-03-21T13:37:53;100366.91;;;19.33;50.21
9335;BME280;4706;41.844;26.082;2023-03-21T13:40:22;100381.59;;;19.30;50.75
9335;BME280;4706;41.844;26.082;2023-03-21T13:42:55;100373.50;;;19.25;51.23
9335;BME280;4706;41.844;26.082;2023-03-21T13:45:28;100377.63;;;19.31;50.85
9335;BME280;4706;41.844;26.082;2023-03-21T13:47:57;100373.31;;;19.33;51.42
9335;BME280;4706;41.844;26.082;2023-03-21T13:50:28;100365.75;;;19.34;51.42
9335;BME280;4706;41.844;26.082;2023-03-21T13:55:27;100366.25;;;19.39;51.46
9335;BME280;4706;41.844;26.082;2023-03-21T13:57:53;100364.56;;;19.35;50.46
9335;BME280;4706;41.844;26.082;2023-03-21T14:00:30;100363.06;;;19.37;50.31
9335;BME280;4706;41.844;26.082;2023-03-21T14:02:59;100359.84;;;19.20;51.50
9335;BME280;4706;41.844;26.082;2023-03-21T14:05:26;100365.22;;;19.28;50.34
9335;BME280;4706;41.844;26.082;2023-03-21T14:08:14;100362.66;;;19.20;50.45
9335;BME280;4706;41.844;26.082;2023-03-21T14:10:47;100366.78;;;19.26;49.87
9335;BME280;4706;41.844;26.082;2023-03-21T14:13:19;100364.00;;;19.26;49.62
9335;BME280;4706;41.844;26.082;2023-03-21T14:15:48;100362.94;;;19.14;50.62
9335;BME280;4706;41.844;26.082;2023-03-21T14:18:18;100378.50;;;19.15;50.52
9335;BME280;4706;41.844;26.082;2023-03-21T14:20:44;100372.38;;;19.10;50.37
9335;BME280;4706;41.844;26.082;2023-03-21T14:23:15;100377.06;;;19.06;50.12
9335;BME280;4706;41.844;26.082;2023-03-21T14:25:42;100372.75;;;19.08;50.56
9335;BME280;4706;41.844;26.082;2023-03-21T14:28:18;100372.75;;;19.08;50.05
9335;BME280;4706;41.844;26.082;2023-03-21T14:30:50;100363.13;;;19.06;50.20
9335;BME280;4706;41.844;26.082;2023-03-21T14:33:31;100363.66;;;19.11;50.44
9335;BME280;4706;41.844;26.082;2023-03-21T14:35:59;100352.34;;;19.04;49.78